createdAt,value
2023-11-19T00:00:31.733Z,4.03
2023-11-19T00:02:59.805Z,6.37
2023-11-19T00:05:28.903Z,4.17
2023-11-19T00:07:56.734Z,6.97
2023-11-19T00:10:24.858Z,5.50
2023-11-19T00:12:52.425Z,6.07
2023-11-19T00:15:20.613Z,3.87
2023-11-19T00:17:50.273Z,5.10
2023-11-19T00:20:20.346Z,4.40
2023-11-19T00:22:50.568Z,5.10
2023-11-19T00:25:19.744Z,5.53
2023-11-19T00:27:47.489Z,5.10
2023-11-19T00:30:16.037Z,6.63
2023-11-19T00:32:44.183Z,3.70
2023-11-19T00:35:11.892Z,5.67
2023-11-19T00:37:41.233Z,4.93
2023-11-19T00:40:12.359Z,5.12
2023-11-19T00:42:40.860Z,4.03
2023-11-19T00:45:13.936Z,5.00
2023-11-19T00:47:42.515Z,4.40
2023-11-19T00:50:14.521Z,5.03
2023-11-19T00:52:42.792Z,9.00
2023-11-19T00:55:10.665Z,3.73
2023-11-19T00:57:38.393Z,5.70
2023-11-19T01:00:20.658Z,4.70
2023-11-19T01:02:51.959Z,3.20
2023-11-19T01:05:24.249Z,3.03
2023-11-19T01:07:53.721Z,5.30
2023-11-19T01:10:21.940Z,5.27
2023-11-19T01:12:49.617Z,4.50
2023-11-19T01:15:20.154Z,5.43
2023-11-19T01:20:18.824Z,5.73
2023-11-19T01:22:46.377Z,3.17
2023-11-19T01:25:15.259Z,6.43
2023-11-19T01:27:43.510Z,4.10
2023-11-19T01:30:14.573Z,5.27
2023-11-19T01:32:42.900Z,5.80
2023-11-19T01:35:10.899Z,4.73
2023-11-19T01:37:38.630Z,5.93
2023-11-19T01:40:07.932Z,4.90
2023-11-19T01:42:39.961Z,4.97
2023-11-19T01:45:11.006Z,4.20
2023-11-19T01:47:39.313Z,6.93
2023-11-19T01:50:09.632Z,4.97
2023-11-19T01:52:39.159Z,5.73
2023-11-19T01:55:10.108Z,4.12
2023-11-19T01:57:39.753Z,6.83
2023-11-19T02:00:13.322Z,3.77
2023-11-19T02:02:42.635Z,4.77
2023-11-19T02:05:14.111Z,3.63
2023-11-19T02:07:41.865Z,4.03
2023-11-19T02:10:14.462Z,4.73
2023-11-19T02:12:46.076Z,4.93
2023-11-19T02:15:13.753Z,2.63
2023-11-19T02:17:41.415Z,5.57
2023-11-19T02:20:13.770Z,4.03
2023-11-19T02:22:42.313Z,4.37
2023-11-19T02:25:18.606Z,7.77
2023-11-19T02:28:02.192Z,10.10
2023-11-19T02:30:30.373Z,2.07
2023-11-19T02:33:04.754Z,5.60
2023-11-19T02:35:33.448Z,4.00
2023-11-19T02:38:02.164Z,3.42
2023-11-19T02:40:30.349Z,6.27
2023-11-19T02:42:59.192Z,3.53
2023-11-19T02:45:28.123Z,7.57
2023-11-19T02:47:58.881Z,2.25
2023-11-19T02:50:26.957Z,6.13
2023-11-19T02:52:59.675Z,4.10
2023-11-19T02:55:29.656Z,4.10
2023-11-19T02:58:00.849Z,5.33
2023-11-19T03:00:33.626Z,5.90
2023-11-19T03:03:06.822Z,4.13
2023-11-19T03:05:34.782Z,5.43
2023-11-19T03:08:02.659Z,4.07
2023-11-19T03:10:30.660Z,3.53
2023-11-19T03:12:58.759Z,3.77
2023-11-19T03:15:27.204Z,4.57
2023-11-19T03:17:55.493Z,4.65
2023-11-19T03:20:25.095Z,4.78
2023-11-19T03:22:54.135Z,4.40
2023-11-19T03:25:21.777Z,4.78
2023-11-19T03:27:49.647Z,4.50
2023-11-19T03:30:18.987Z,5.00
2023-11-19T03:32:46.824Z,11.77
2023-11-19T03:35:14.754Z,4.13
2023-11-19T03:37:42.258Z,5.17
2023-11-19T03:40:10.703Z,4.43
2023-11-19T03:42:38.562Z,3.83
2023-11-19T03:45:09.755Z,6.27
2023-11-19T03:47:37.370Z,3.50
2023-11-19T03:50:05.731Z,6.40
2023-11-19T03:52:44.079Z,4.00
2023-11-19T03:55:13.825Z,2.95
2023-11-19T03:57:41.472Z,4.95
2023-11-19T04:00:11.510Z,5.60
2023-11-19T04:02:40.368Z,7.80
2023-11-19T04:05:08.958Z,4.30
2023-11-19T04:07:36.724Z,2.70
2023-11-19T04:10:04.833Z,3.50
2023-11-19T04:12:32.891Z,3.75
2023-11-19T04:15:01.526Z,4.27
2023-11-19T04:19:57.750Z,4.80
2023-11-19T04:22:25.408Z,2.27
2023-11-19T04:24:53.186Z,6.20
2023-11-19T04:27:21.280Z,5.27
2023-11-19T04:29:48.779Z,4.23
2023-11-19T04:32:16.471Z,6.30
2023-11-19T04:34:44.421Z,4.63
2023-11-19T04:37:13.987Z,3.03
2023-11-19T04:39:41.962Z,2.43
2023-11-19T04:42:09.889Z,4.30
2023-11-19T04:44:37.443Z,4.77
2023-11-19T04:47:05.229Z,3.10
2023-11-19T04:49:33.264Z,3.53
2023-11-19T04:52:00.929Z,3.53
2023-11-19T04:54:28.546Z,2.90
2023-11-19T04:56:56.482Z,2.53
2023-11-19T04:59:24.109Z,3.17
2023-11-19T05:01:51.925Z,3.10
2023-11-19T05:04:20.499Z,4.93
2023-11-19T05:06:48.297Z,3.62
2023-11-19T05:09:15.694Z,4.13
2023-11-19T05:14:15.268Z,4.50
2023-11-19T05:16:44.301Z,5.73
2023-11-19T05:19:11.875Z,5.53
2023-11-19T05:21:39.407Z,5.97
2023-11-19T05:24:07.719Z,4.13
2023-11-19T05:26:35.314Z,2.20
2023-11-19T05:29:03.020Z,3.90
2023-11-19T05:31:32.310Z,3.77
2023-11-19T05:34:01.255Z,5.23
2023-11-19T05:36:30.243Z,3.27
2023-11-19T05:38:57.959Z,3.20
2023-11-19T05:41:25.710Z,5.23
2023-11-19T05:43:53.436Z,3.83
2023-11-19T05:46:21.807Z,3.27
2023-11-19T05:48:49.919Z,4.57
2023-11-19T05:51:17.780Z,4.27
2023-11-19T05:53:49.328Z,5.90
2023-11-19T05:56:17.451Z,10.43
2023-11-19T05:58:46.307Z,7.27
2023-11-19T06:01:14.241Z,9.97
2023-11-19T06:03:44.266Z,4.70
2023-11-19T06:06:12.644Z,4.83
2023-11-19T06:08:41.012Z,5.50
2023-11-19T06:11:09.569Z,4.97
2023-11-19T06:13:37.911Z,3.70
2023-11-19T06:16:07.159Z,4.33
2023-11-19T06:18:35.497Z,8.33
2023-11-19T06:21:03.128Z,5.30
2023-11-19T06:23:30.551Z,3.53
2023-11-19T06:25:58.427Z,5.03
2023-11-19T06:28:26.831Z,5.00
2023-11-19T06:30:54.463Z,5.18
2023-11-19T06:33:22.421Z,11.90
2023-11-19T06:35:50.696Z,4.77
2023-11-19T06:38:19.164Z,5.60
2023-11-19T06:40:49.663Z,7.12
2023-11-19T06:43:19.272Z,5.20
2023-11-19T06:45:47.647Z,5.15
2023-11-19T06:48:15.902Z,7.03
2023-11-19T06:50:43.437Z,5.33
2023-11-19T06:53:11.846Z,5.13
2023-11-19T06:55:39.477Z,5.73
2023-11-19T06:58:08.341Z,4.53
2023-11-19T07:00:37.368Z,3.80
2023-11-19T07:03:05.517Z,3.53
2023-11-19T07:05:33.311Z,4.53
2023-11-19T07:08:02.435Z,5.27
2023-11-19T07:10:31.482Z,5.62
2023-11-19T07:12:59.057Z,4.07
2023-11-19T07:15:27.120Z,3.97
2023-11-19T07:20:28.126Z,4.20
2023-11-19T07:22:58.737Z,17.93
2023-11-19T07:25:26.491Z,5.33
2023-11-19T07:27:54.257Z,7.63
2023-11-19T07:30:22.773Z,4.70
2023-11-19T07:32:50.565Z,6.47
2023-11-19T07:35:18.737Z,13.20
2023-11-19T07:37:49.154Z,13.15
2023-11-19T07:40:16.686Z,10.00
2023-11-19T07:42:44.179Z,13.23
2023-11-19T07:45:12.351Z,16.40
2023-11-19T07:47:40.045Z,9.73
2023-11-19T07:50:08.209Z,7.87
2023-11-19T07:52:36.123Z,4.12
2023-11-19T07:55:03.789Z,8.13
2023-11-19T07:57:32.259Z,9.00
2023-11-19T08:00:02.124Z,8.52
2023-11-19T08:04:58.645Z,8.38
2023-11-19T08:07:26.346Z,10.83
2023-11-19T08:09:53.996Z,6.63
2023-11-19T08:12:22.255Z,8.13
2023-11-19T08:14:50.696Z,10.47
2023-11-19T08:17:18.777Z,9.45
2023-11-19T08:19:46.804Z,13.02
2023-11-19T08:22:14.396Z,8.97
2023-11-19T08:24:41.892Z,7.10
2023-11-19T08:27:09.829Z,16.03
2023-11-19T08:29:37.526Z,10.43
2023-11-19T08:32:05.717Z,5.37
2023-11-19T08:34:33.733Z,7.80
2023-11-19T08:37:01.603Z,10.50
2023-11-19T08:39:29.229Z,7.30
2023-11-19T08:41:57.141Z,8.23
2023-11-19T08:44:24.921Z,29.73
2023-11-19T08:46:52.741Z,18.97
2023-11-19T08:49:20.660Z,10.87
2023-11-19T08:51:48.233Z,19.73
2023-11-19T08:54:15.767Z,12.70
2023-11-19T08:56:43.782Z,12.13
2023-11-19T08:59:11.416Z,8.20
2023-11-19T09:01:39.073Z,9.93
2023-11-19T09:04:08.053Z,7.90
2023-11-19T09:06:37.231Z,4.20
2023-11-19T09:09:06.880Z,5.07
2023-11-19T09:11:34.909Z,5.93
2023-11-19T09:14:02.515Z,7.20
2023-11-19T09:16:30.192Z,4.83
2023-11-19T09:18:59.263Z,4.77
2023-11-19T09:21:32.607Z,5.25
2023-11-19T09:24:00.437Z,6.20
2023-11-19T09:26:27.992Z,7.70
2023-11-19T09:28:55.664Z,13.57
2023-11-19T09:31:23.771Z,8.20
2023-11-19T09:33:51.326Z,8.17
2023-11-19T09:36:20.448Z,8.23
2023-11-19T09:38:48.592Z,6.67
2023-11-19T09:41:17.623Z,6.60
2023-11-19T09:43:46.316Z,3.78
2023-11-19T09:46:17.963Z,4.35
2023-11-19T09:48:46.583Z,10.33
2023-11-19T09:51:14.578Z,6.03
2023-11-19T09:53:42.569Z,3.73
2023-11-19T09:56:12.043Z,15.57
2023-11-19T09:58:41.416Z,10.80
2023-11-19T10:03:45.282Z,12.67
2023-11-19T10:06:13.938Z,15.77
2023-11-19T10:08:44.571Z,13.48
2023-11-19T10:11:14.552Z,9.00
2023-11-19T10:13:44.058Z,13.27
2023-11-19T10:16:14.445Z,10.65
2023-11-19T10:18:53.958Z,6.80
2023-11-19T10:21:21.715Z,5.18
2023-11-19T10:24:01.495Z,4.10
2023-11-19T10:26:30.417Z,4.23
2023-11-19T10:28:58.538Z,5.93
2023-11-19T10:31:28.032Z,4.63
2023-11-19T10:33:56.389Z,8.33
2023-11-19T10:36:27.150Z,5.70
2023-11-19T10:38:58.482Z,4.80
2023-11-19T10:41:32.221Z,6.10
2023-11-19T10:44:01.125Z,6.67
2023-11-19T10:49:09.089Z,16.17
2023-11-19T10:51:37.339Z,23.85
2023-11-19T10:54:08.026Z,15.17
2023-11-19T10:56:36.063Z,43.73
2023-11-19T10:59:23.052Z,35.22
2023-11-19T11:01:56.267Z,39.73
2023-11-19T11:04:27.044Z,7.13
2023-11-19T11:06:56.137Z,9.40
2023-11-19T11:09:24.795Z,17.40
2023-11-19T11:11:53.978Z,5.82
2023-11-19T11:14:23.826Z,26.08
2023-11-19T11:16:53.104Z,8.80
2023-11-19T11:19:21.312Z,15.25
2023-11-19T11:21:56.033Z,9.07
2023-11-19T11:24:49.136Z,5.23
2023-11-19T11:27:59.682Z,8.67
2023-11-19T11:30:35.909Z,10.37
2023-11-19T11:33:25.487Z,9.03
2023-11-19T11:35:56.281Z,27.47
2023-11-19T11:38:25.331Z,21.20
2023-11-19T11:41:28.834Z,13.77
2023-11-19T11:43:59.059Z,16.27
2023-11-19T11:46:39.274Z,13.18
2023-11-19T11:49:08.496Z,12.00
2023-11-19T11:51:46.520Z,10.23
2023-11-19T11:54:21.082Z,9.30
2023-11-19T11:57:15.580Z,9.10
2023-11-19T11:59:43.630Z,25.10
2023-11-19T12:02:13.996Z,9.30
2023-11-19T12:04:42.640Z,17.40
2023-11-19T12:07:15.388Z,14.98
2023-11-19T12:09:44.194Z,11.63
2023-11-19T12:12:22.530Z,10.75
2023-11-19T12:14:59.785Z,9.82
2023-11-19T12:17:38.414Z,12.37
2023-11-19T12:20:10.699Z,17.02
2023-11-19T12:22:43.318Z,9.87
2023-11-19T12:25:15.540Z,6.50
2023-11-19T12:27:47.726Z,5.80
2023-11-19T12:30:27.522Z,5.90
2023-11-19T12:32:56.137Z,10.03
2023-11-19T12:35:25.179Z,7.07
2023-11-19T12:37:54.218Z,12.00
2023-11-19T12:42:55.560Z,6.62
2023-11-19T12:45:25.427Z,10.17
2023-11-19T12:48:06.768Z,8.10
2023-11-19T12:50:54.973Z,8.13
2023-11-19T12:53:24.268Z,9.57
2023-11-19T12:55:53.236Z,14.60
2023-11-19T12:58:50.698Z,9.82
2023-11-19T13:01:20.794Z,10.60
2023-11-19T13:03:50.477Z,4.70
2023-11-19T13:06:22.648Z,7.47
2023-11-19T13:08:56.185Z,3.30
2023-11-19T13:11:35.870Z,5.47
2023-11-19T13:14:10.477Z,4.50
2023-11-19T13:16:40.436Z,10.40
2023-11-19T13:19:10.199Z,13.07
2023-11-19T13:21:39.393Z,12.97
2023-11-19T13:24:10.327Z,18.08
2023-11-19T13:26:39.410Z,20.20
2023-11-19T13:29:06.988Z,5.00
2023-11-19T13:31:34.606Z,4.53
2023-11-19T13:34:02.777Z,16.13
2023-11-19T13:36:30.597Z,16.33
2023-11-19T13:39:00.866Z,14.65
2023-11-19T13:41:29.264Z,19.67
2023-11-19T13:43:56.873Z,17.07
2023-11-19T13:46:24.628Z,8.93
2023-11-19T13:48:52.647Z,12.05
2023-11-19T13:51:20.742Z,5.93
2023-11-19T13:56:19.435Z,8.53
2023-11-19T13:58:47.165Z,9.50
2023-11-19T14:01:16.007Z,9.37
2023-11-19T14:06:11.803Z,9.53
2023-11-19T14:08:39.367Z,10.17
2023-11-19T14:11:08.222Z,14.33
2023-11-19T14:13:36.124Z,12.77
2023-11-19T14:16:04.583Z,10.30
2023-11-19T14:18:36.477Z,16.12
2023-11-19T14:21:04.999Z,16.53
2023-11-19T14:23:32.964Z,14.90
2023-11-19T14:26:00.507Z,15.60
2023-11-19T14:28:28.360Z,17.50
2023-11-19T14:30:58.609Z,13.57
2023-11-19T14:33:26.319Z,13.50
2023-11-19T14:35:53.986Z,9.07
2023-11-19T14:38:21.975Z,9.97
2023-11-19T14:40:49.680Z,23.73
2023-11-19T14:43:17.350Z,15.90
2023-11-19T14:45:49.990Z,14.65
2023-11-19T14:48:21.597Z,56.70
2023-11-19T14:50:49.685Z,52.80
2023-11-19T14:53:17.366Z,43.37
2023-11-19T14:55:45.043Z,35.80
2023-11-19T14:58:17.260Z,25.03
2023-11-19T15:00:46.541Z,21.83
2023-11-19T15:03:17.701Z,19.43
2023-11-19T15:05:49.399Z,73.73
2023-11-19T15:08:17.613Z,93.60
2023-11-19T15:10:46.436Z,78.77
2023-11-19T15:13:14.015Z,87.72
2023-11-19T15:15:42.089Z,93.87
2023-11-19T15:18:11.486Z,80.10
2023-11-19T15:20:39.200Z,74.20
2023-11-19T15:23:09.426Z,76.60
2023-11-19T15:25:38.077Z,80.23
2023-11-19T15:28:06.217Z,97.07
2023-11-19T15:30:34.614Z,86.45
2023-11-19T15:33:02.474Z,97.33
2023-11-19T15:35:30.075Z,80.53
2023-11-19T15:37:58.222Z,80.43
2023-11-19T15:40:26.123Z,64.50
2023-11-19T15:42:56.096Z,67.10
2023-11-19T15:45:24.077Z,92.77
2023-11-19T15:47:51.856Z,68.43
2023-11-19T15:50:19.620Z,91.93
2023-11-19T15:52:49.300Z,42.17
2023-11-19T15:55:17.397Z,24.87
2023-11-19T15:57:45.034Z,22.63
2023-11-19T16:00:13.499Z,93.57
2023-11-19T16:02:41.965Z,110.40
2023-11-19T16:05:15.333Z,78.70
2023-11-19T16:07:43.793Z,93.50
2023-11-19T16:10:14.310Z,106.30
2023-11-19T16:12:42.074Z,88.37
2023-11-19T16:15:10.367Z,100.47
2023-11-19T16:17:40.185Z,78.93
2023-11-19T16:20:08.701Z,130.93
2023-11-19T16:22:36.705Z,83.12
2023-11-19T16:25:04.629Z,64.57
2023-11-19T16:27:32.178Z,75.23
2023-11-19T16:30:00.962Z,58.30
2023-11-19T16:32:29.069Z,87.70
2023-11-19T16:34:57.262Z,63.80
2023-11-19T16:37:25.988Z,50.30
2023-11-19T16:39:54.044Z,58.65
2023-11-19T16:42:22.040Z,28.63
2023-11-19T16:44:51.086Z,21.37
2023-11-19T16:47:18.776Z,19.73
2023-11-19T16:49:46.365Z,19.97
2023-11-19T16:52:15.158Z,13.07
2023-11-19T16:54:43.137Z,10.88
2023-11-19T16:57:11.093Z,12.47
2023-11-19T16:59:39.126Z,16.03
2023-11-19T17:02:06.836Z,19.30
2023-11-19T17:04:34.523Z,37.07
2023-11-19T17:07:02.507Z,77.73
2023-11-19T17:09:30.058Z,67.60
2023-11-19T17:11:57.711Z,60.63
2023-11-19T17:16:56.380Z,53.00
2023-11-19T17:19:23.886Z,43.23
2023-11-19T17:21:51.895Z,36.67
2023-11-19T17:24:19.536Z,40.33
2023-11-19T17:26:47.701Z,74.03
2023-11-19T17:29:18.885Z,68.62
2023-11-19T17:31:46.945Z,29.37
2023-11-19T17:34:15.578Z,24.95
2023-11-19T17:36:43.409Z,21.50
2023-11-19T17:39:12.452Z,18.10
2023-11-19T17:41:40.820Z,13.32
2023-11-19T17:44:08.871Z,13.07
2023-11-19T17:46:37.099Z,15.40
2023-11-19T17:49:05.480Z,13.82
2023-11-19T17:51:33.510Z,14.83
2023-11-19T17:54:01.403Z,12.10
2023-11-19T17:56:29.681Z,15.47
2023-11-19T17:58:58.537Z,12.67
2023-11-19T18:01:27.081Z,10.38
2023-11-19T18:03:55.336Z,14.70
2023-11-19T18:06:22.907Z,22.67
2023-11-19T18:08:51.297Z,19.40
2023-11-19T18:11:21.969Z,27.75
2023-11-19T18:13:50.957Z,37.57
2023-11-19T18:16:22.520Z,40.40
2023-11-19T18:18:50.435Z,52.50
2023-11-19T18:21:19.294Z,68.97
2023-11-19T18:23:47.376Z,90.25
2023-11-19T18:26:15.025Z,87.07
2023-11-19T18:28:43.187Z,117.57
2023-11-19T18:31:11.502Z,74.70
2023-11-19T18:33:39.637Z,99.37
2023-11-19T18:36:08.460Z,80.87
2023-11-19T18:38:43.846Z,73.25
2023-11-19T18:41:14.382Z,91.53
2023-11-19T18:43:42.705Z,87.13
2023-11-19T18:46:10.880Z,64.73
2023-11-19T18:48:38.705Z,39.50
2023-11-19T18:51:06.879Z,32.87
2023-11-19T18:53:35.812Z,44.90
2023-11-19T18:56:04.696Z,68.47
2023-11-19T19:01:00.333Z,60.27
2023-11-19T19:03:32.407Z,48.80
2023-11-19T19:06:00.837Z,55.67
2023-11-19T19:08:28.854Z,59.77
2023-11-19T19:10:56.744Z,52.70
2023-11-19T19:13:24.840Z,41.17
2023-11-19T19:15:53.198Z,32.03
2023-11-19T19:18:20.959Z,28.98
2023-11-19T19:20:49.224Z,38.60
2023-11-19T19:23:16.895Z,46.07
2023-11-19T19:25:44.546Z,49.97
2023-11-19T19:30:43.897Z,42.57
2023-11-19T19:33:13.149Z,36.05
2023-11-19T19:35:41.333Z,28.08
2023-11-19T19:38:10.797Z,24.87
2023-11-19T19:40:40.043Z,19.37
2023-11-19T19:43:08.047Z,21.45
2023-11-19T19:45:36.979Z,23.90
2023-11-19T19:50:32.984Z,44.73
2023-11-19T19:53:00.673Z,46.97
2023-11-19T19:55:28.685Z,38.43
2023-11-19T19:57:56.381Z,36.30
2023-11-19T20:00:24.499Z,88.93
2023-11-19T20:02:52.713Z,86.10
2023-11-19T20:05:21.183Z,107.27
2023-11-19T20:07:49.672Z,76.60
2023-11-19T20:10:18.070Z,97.12
2023-11-19T20:12:45.650Z,127.13
2023-11-19T20:15:13.402Z,113.37
2023-11-19T20:17:42.382Z,99.80
2023-11-19T20:20:12.668Z,124.18
2023-11-19T20:22:41.242Z,117.57
2023-11-19T20:25:11.430Z,126.97
2023-11-19T20:27:39.172Z,129.47
2023-11-19T20:30:07.554Z,126.57
2023-11-19T20:32:37.948Z,133.80
2023-11-19T20:35:06.741Z,118.97
2023-11-19T20:37:38.469Z,120.45
2023-11-19T20:40:08.568Z,116.70
2023-11-19T20:42:38.434Z,115.00
2023-11-19T20:45:10.416Z,112.80
2023-11-19T20:47:39.325Z,113.47
2023-11-19T20:50:09.226Z,105.63
2023-11-19T20:52:37.395Z,117.47
2023-11-19T20:55:05.657Z,105.57
2023-11-19T20:57:33.763Z,118.07
2023-11-19T21:00:01.487Z,119.90
2023-11-19T21:02:29.958Z,123.65
2023-11-19T21:04:57.956Z,153.07
2023-11-19T21:07:26.901Z,104.83
2023-11-19T21:09:54.589Z,105.97
2023-11-19T21:12:22.549Z,112.83
2023-11-19T21:14:50.180Z,121.40
2023-11-19T21:17:21.143Z,141.60
2023-11-19T21:19:49.445Z,129.50
2023-11-19T21:22:18.460Z,134.30
2023-11-19T21:24:46.167Z,121.60
2023-11-19T21:27:15.868Z,107.50
2023-11-19T21:29:43.583Z,120.10
2023-11-19T21:32:12.284Z,118.17
2023-11-19T21:34:41.922Z,104.90
2023-11-19T21:39:38.208Z,71.20
2023-11-19T21:42:07.210Z,77.87
2023-11-19T21:44:34.850Z,66.60
2023-11-19T21:47:02.439Z,67.90
2023-11-19T21:49:30.590Z,57.63
2023-11-19T21:51:58.123Z,53.67
2023-11-19T21:54:26.598Z,49.80
2023-11-19T21:56:54.604Z,59.75
2023-11-19T21:59:22.275Z,64.20
2023-11-19T22:01:50.026Z,58.73
2023-11-19T22:04:18.137Z,54.27
2023-11-19T22:06:45.740Z,47.50
2023-11-19T22:09:15.301Z,43.40
2023-11-19T22:11:43.243Z,51.73
2023-11-19T22:14:10.847Z,51.67
2023-11-19T22:16:38.574Z,84.00
2023-11-19T22:19:06.796Z,74.40
2023-11-19T22:21:34.423Z,71.57
2023-11-19T22:24:03.041Z,69.53
2023-11-19T22:26:31.016Z,67.47
2023-11-19T22:28:59.296Z,62.80
2023-11-19T22:31:27.804Z,72.10
2023-11-19T22:33:55.880Z,59.65
2023-11-19T22:36:24.059Z,53.87
2023-11-19T22:38:51.808Z,66.53
2023-11-19T22:41:20.170Z,62.23
2023-11-19T22:43:47.782Z,64.57
2023-11-19T22:46:16.321Z,76.60
2023-11-19T22:48:44.434Z,67.80
2023-11-19T22:51:12.110Z,66.20
2023-11-19T22:53:39.685Z,65.47
2023-11-19T22:56:08.253Z,70.97
2023-11-19T22:58:35.942Z,58.13
2023-11-19T23:01:04.167Z,62.77
2023-11-19T23:03:33.443Z,49.80
2023-11-19T23:06:01.056Z,59.30
2023-11-19T23:08:28.649Z,57.37
2023-11-19T23:10:56.493Z,75.47
2023-11-19T23:13:25.406Z,71.57
2023-11-19T23:15:53.093Z,80.97
2023-11-19T23:18:21.706Z,60.97
2023-11-19T23:20:49.388Z,55.07
2023-11-19T23:23:16.815Z,44.30
2023-11-19T23:25:44.615Z,40.80
2023-11-19T23:28:12.735Z,38.40
2023-11-19T23:30:40.298Z,34.10
2023-11-19T23:33:09.170Z,27.00
2023-11-19T23:35:36.754Z,18.73
2023-11-19T23:38:04.756Z,19.70
2023-11-19T23:40:32.855Z,34.55
2023-11-19T23:43:00.473Z,23.37
2023-11-19T23:45:28.089Z,57.17
2023-11-19T23:47:56.232Z,42.47
2023-11-19T23:50:23.744Z,28.47
2023-11-19T23:52:51.268Z,33.50
2023-11-19T23:55:19.228Z,35.70
2023-11-19T23:57:46.902Z,54.97
